Main page
METAR-TAF:

METAR-TAF

Airports :

Base Aérea de Armilla

Granada, Spain

latitude: 37-08N, longitude: 003-38-08W, elevation: 700 m

Current weather observation

The report was made 16 hours and 38 minutes ago, at 13:00 UTC
Wind 17 kt from the South
Temperature 40°C
Humidity 14%
Pressure 1016 hPa
Visibility 10 km or more
no clouds below 1500 m and no cumulonimbus

METAR: LEGA 121300Z 18017KT CAVOK 40/07 Q1016

Time: 07:38 (05:38 UTC)

Forecast

The report was made 18 hours and 38 minutes ago, at 11:00 UTC
Forecast valid from 12 at 12 UTC to 13 at 12 UTC
Wind 10 kt from the South
Visibility 10 km or more
no clouds below 1500 m and no cumulonimbus
Probability 40% :
Temporary
from 12 at 13 UTC to 12 at 18 UTC
Scattered clouds at a height of 6000 ft, Cumulonimbus.
Becoming
from 12 at 22 UTC to 12 at 24 UTC
Wind 2 kt from variable directions

TAF: LEGA 121100Z 1212/1312 18010KT CAVOK TX40/1215Z TN21/1305Z PROB40 TEMPO 1213/1218 SCT060CB BECMG 1222/1224 VRB02KT

Weather observations and forecasts of more than 4000 airports (METAR and TAF reports).

The available stations are represented by yellow and red dots on the map.

Hover mouse over dot to see the name of the station.

Then click to see weather observations and forecasts.

To change the map : click on the green buttons with a black cross to zoom in, on the green button with a dash to zoom out, or on the green arrows for adjacent maps.


METAR-TAF: